sensor_id;sensor_type;location;lat;lon;timestamp;pressure;altitude;pressure_sealevel;temperature
71205;BMP180;58935;54.498;18.544;2023-07-02T00:00:20;99105.00;;;17.70
71205;BMP180;58935;54.498;18.544;2023-07-02T00:02:46;99107.40;;;17.70
71205;BMP180;58935;54.498;18.544;2023-07-02T00:05:11;99103.20;;;17.70
71205;BMP180;58935;54.498;18.544;2023-07-02T00:07:37;99104.60;;;17.70
71205;BMP180;58935;54.498;18.544;2023-07-02T00:10:04;99106.20;;;17.70
71205;BMP180;58935;54.498;18.544;2023-07-02T00:12:30;99110.80;;;17.70
71205;BMP180;58935;54.498;18.544;2023-07-02T00:14:55;99112.80;;;17.60
71205;BMP180;58935;54.498;18.544;2023-07-02T00:17:21;99114.40;;;17.60
71205;BMP180;58935;54.498;18.544;2023-07-02T00:19:47;99105.20;;;17.60
71205;BMP180;58935;54.498;18.544;2023-07-02T00:22:12;99102.20;;;17.54
71205;BMP180;58935;54.498;18.544;2023-07-02T00:24:38;99096.00;;;17.50
71205;BMP180;58935;54.498;18.544;2023-07-02T00:27:04;99095.00;;;17.46
71205;BMP180;58935;54.498;18.544;2023-07-02T00:29:29;99092.80;;;17.40
71205;BMP180;58935;54.498;18.544;2023-07-02T00:31:54;99088.80;;;17.40
71205;BMP180;58935;54.498;18.544;2023-07-02T00:34:20;99090.80;;;17.38
71205;BMP180;58935;54.498;18.544;2023-07-02T00:36:46;99088.60;;;17.30
71205;BMP180;58935;54.498;18.544;2023-07-02T00:39:12;99092.60;;;17.30
71205;BMP180;58935;54.498;18.544;2023-07-02T00:41:38;99089.40;;;17.30
71205;BMP180;58935;54.498;18.544;2023-07-02T00:44:06;99085.80;;;17.30
71205;BMP180;58935;54.498;18.544;2023-07-02T00:46:31;99080.00;;;17.28
71205;BMP180;58935;54.498;18.544;2023-07-02T00:49:00;99083.80;;;17.24
71205;BMP180;58935;54.498;18.544;2023-07-02T00:51:32;99086.40;;;17.20
71205;BMP180;58935;54.498;18.544;2023-07-02T00:54:00;99083.80;;;17.20
71205;BMP180;58935;54.498;18.544;2023-07-02T00:56:26;99078.60;;;17.12
71205;BMP180;58935;54.498;18.544;2023-07-02T00:58:54;99072.80;;;17.10
71205;BMP180;58935;54.498;18.544;2023-07-02T01:01:27;99058.40;;;17.10
71205;BMP180;58935;54.498;18.544;2023-07-02T01:03:57;99052.60;;;17.04
71205;BMP180;58935;54.498;18.544;2023-07-02T01:06:27;99052.00;;;17.00
71205;BMP180;58935;54.498;18.544;2023-07-02T01:08:58;99042.00;;;17.00
71205;BMP180;58935;54.498;18.544;2023-07-02T01:11:33;99047.00;;;16.90
71205;BMP180;58935;54.498;18.544;2023-07-02T01:14:05;99045.80;;;16.90
71205;BMP180;58935;54.498;18.544;2023-07-02T01:16:33;99046.40;;;16.90
71205;BMP180;58935;54.498;18.544;2023-07-02T01:19:02;99044.20;;;16.80
71205;BMP180;58935;54.498;18.544;2023-07-02T01:21:31;99035.80;;;16.80
71205;BMP180;58935;54.498;18.544;2023-07-02T01:23:59;99032.60;;;16.78
71205;BMP180;58935;54.498;18.544;2023-07-02T01:26:31;99027.20;;;16.70
71205;BMP180;58935;54.498;18.544;2023-07-02T01:29:00;99025.20;;;16.70
71205;BMP180;58935;54.498;18.544;2023-07-02T01:31:28;99026.40;;;16.70
71205;BMP180;58935;54.498;18.544;2023-07-02T01:33:54;99021.80;;;16.60
71205;BMP180;58935;54.498;18.544;2023-07-02T01:36:19;99019.80;;;16.60
71205;BMP180;58935;54.498;18.544;2023-07-02T01:38:44;99020.40;;;16.60
71205;BMP180;58935;54.498;18.544;2023-07-02T01:41:09;99017.00;;;16.56
71205;BMP180;58935;54.498;18.544;2023-07-02T01:43:37;99012.20;;;16.50
71205;BMP180;58935;54.498;18.544;2023-07-02T01:46:02;99015.20;;;16.50
71205;BMP180;58935;54.498;18.544;2023-07-02T01:48:28;99010.00;;;16.50
71205;BMP180;58935;54.498;18.544;2023-07-02T01:50:53;99007.60;;;16.50
71205;BMP180;58935;54.498;18.544;2023-07-02T01:53:18;99003.60;;;16.50
71205;BMP180;58935;54.498;18.544;2023-07-02T01:55:46;99000.60;;;16.50
71205;BMP180;58935;54.498;18.544;2023-07-02T01:58:11;99003.40;;;16.50
71205;BMP180;58935;54.498;18.544;2023-07-02T02:00:37;98999.60;;;16.48
71205;BMP180;58935;54.498;18.544;2023-07-02T02:03:04;99006.40;;;16.48
71205;BMP180;58935;54.498;18.544;2023-07-02T02:05:29;99000.40;;;16.50
71205;BMP180;58935;54.498;18.544;2023-07-02T02:07:54;98998.00;;;16.50
71205;BMP180;58935;54.498;18.544;2023-07-02T02:10:22;98999.40;;;16.50
71205;BMP180;58935;54.498;18.544;2023-07-02T02:12:48;98999.80;;;16.50
71205;BMP180;58935;54.498;18.544;2023-07-02T02:15:13;98994.00;;;16.50
71205;BMP180;58935;54.498;18.544;2023-07-02T02:17:41;98994.60;;;16.60
71205;BMP180;58935;54.498;18.544;2023-07-02T02:20:08;98992.20;;;16.60
71205;BMP180;58935;54.498;18.544;2023-07-02T02:22:33;98990.80;;;16.60
71205;BMP180;58935;54.498;18.544;2023-07-02T02:24:59;98990.60;;;16.60
71205;BMP180;58935;54.498;18.544;2023-07-02T02:27:29;98988.60;;;16.60
71205;BMP180;58935;54.498;18.544;2023-07-02T02:29:55;98992.20;;;16.60
71205;BMP180;58935;54.498;18.544;2023-07-02T02:32:20;98987.40;;;16.60
71205;BMP180;58935;54.498;18.544;2023-07-02T02:34:47;98984.00;;;16.60
71205;BMP180;58935;54.498;18.544;2023-07-02T02:37:12;98992.60;;;16.60
71205;BMP180;58935;54.498;18.544;2023-07-02T02:39:38;98988.80;;;16.60
71205;BMP180;58935;54.498;18.544;2023-07-02T02:42:04;98988.00;;;16.60
71205;BMP180;58935;54.498;18.544;2023-07-02T02:44:29;98981.80;;;16.60
71205;BMP180;58935;54.498;18.544;2023-07-02T02:46:55;98979.60;;;16.60
71205;BMP180;58935;54.498;18.544;2023-07-02T02:49:22;98980.20;;;16.66
71205;BMP180;58935;54.498;18.544;2023-07-02T02:51:50;98978.60;;;16.70
71205;BMP180;58935;54.498;18.544;2023-07-02T02:54:17;98978.00;;;16.70
71205;BMP180;58935;54.498;18.544;2023-07-02T02:56:45;98975.60;;;16.70
71205;BMP180;58935;54.498;18.544;2023-07-02T02:59:10;98972.40;;;16.70
71205;BMP180;58935;54.498;18.544;2023-07-02T03:01:38;98970.20;;;16.68
71205;BMP180;58935;54.498;18.544;2023-07-02T03:04:04;98964.80;;;16.64
71205;BMP180;58935;54.498;18.544;2023-07-02T03:06:29;98963.60;;;16.64
71205;BMP180;58935;54.498;18.544;2023-07-02T03:08:58;98964.80;;;16.66
71205;BMP180;58935;54.498;18.544;2023-07-02T03:11:25;98961.00;;;16.68
71205;BMP180;58935;54.498;18.544;2023-07-02T03:13:50;98958.20;;;16.66
71205;BMP180;58935;54.498;18.544;2023-07-02T03:16:18;98962.80;;;16.62
71205;BMP180;58935;54.498;18.544;2023-07-02T03:18:46;98965.00;;;16.60
71205;BMP180;58935;54.498;18.544;2023-07-02T03:21:12;98961.20;;;16.60
71205;BMP180;58935;54.498;18.544;2023-07-02T03:23:39;98960.80;;;16.60
71205;BMP180;58935;54.498;18.544;2023-07-02T03:26:05;98961.00;;;16.60
71205;BMP180;58935;54.498;18.544;2023-07-02T03:28:32;98949.00;;;16.62
71205;BMP180;58935;54.498;18.544;2023-07-02T03:31:00;98950.00;;;16.70
71205;BMP180;58935;54.498;18.544;2023-07-02T03:33:25;98954.20;;;16.70
71205;BMP180;58935;54.498;18.544;2023-07-02T03:35:50;98948.40;;;16.70
71205;BMP180;58935;54.498;18.544;2023-07-02T03:38:16;98951.40;;;16.70
71205;BMP180;58935;54.498;18.544;2023-07-02T03:40:41;98951.40;;;16.78
71205;BMP180;58935;54.498;18.544;2023-07-02T03:43:06;98956.60;;;16.70
71205;BMP180;58935;54.498;18.544;2023-07-02T03:45:32;98956.00;;;16.70
71205;BMP180;58935;54.498;18.544;2023-07-02T03:47:57;98954.80;;;16.70
71205;BMP180;58935;54.498;18.544;2023-07-02T03:50:22;98964.40;;;16.76
71205;BMP180;58935;54.498;18.544;2023-07-02T03:52:47;98958.00;;;16.76
71205;BMP180;58935;54.498;18.544;2023-07-02T03:55:15;98952.60;;;16.80
71205;BMP180;58935;54.498;18.544;2023-07-02T03:57:40;98949.00;;;16.80
71205;BMP180;58935;54.498;18.544;2023-07-02T04:00:07;98948.00;;;16.80
71205;BMP180;58935;54.498;18.544;2023-07-02T04:02:35;98942.60;;;16.80
71205;BMP180;58935;54.498;18.544;2023-07-02T04:05:01;98949.60;;;16.80
71205;BMP180;58935;54.498;18.544;2023-07-02T04:07:28;98949.40;;;16.90
71205;BMP180;58935;54.498;18.544;2023-07-02T04:09:53;98944.40;;;16.90
71205;BMP180;58935;54.498;18.544;2023-07-02T04:12:19;98946.60;;;16.90
71205;BMP180;58935;54.498;18.544;2023-07-02T04:14:44;98943.20;;;16.90
71205;BMP180;58935;54.498;18.544;2023-07-02T04:17:12;98935.20;;;17.00
71205;BMP180;58935;54.498;18.544;2023-07-02T04:19:37;98933.20;;;17.00
71205;BMP180;58935;54.498;18.544;2023-07-02T04:22:03;98941.40;;;17.10
71205;BMP180;58935;54.498;18.544;2023-07-02T04:24:28;98934.20;;;17.10
71205;BMP180;58935;54.498;18.544;2023-07-02T04:26:53;98941.20;;;17.20
71205;BMP180;58935;54.498;18.544;2023-07-02T04:29:20;98934.60;;;17.30
71205;BMP180;58935;54.498;18.544;2023-07-02T04:31:45;98940.00;;;17.40
71205;BMP180;58935;54.498;18.544;2023-07-02T04:34:10;98933.20;;;17.60
71205;BMP180;58935;54.498;18.544;2023-07-02T04:36:38;98934.20;;;17.76
71205;BMP180;58935;54.498;18.544;2023-07-02T04:39:03;98931.80;;;17.90
71205;BMP180;58935;54.498;18.544;2023-07-02T04:41:31;98933.60;;;18.00
71205;BMP180;58935;54.498;18.544;2023-07-02T04:43:57;98936.40;;;18.02
71205;BMP180;58935;54.498;18.544;2023-07-02T04:46:23;98935.00;;;18.00
71205;BMP180;58935;54.498;18.544;2023-07-02T04:48:48;98933.00;;;17.92
71205;BMP180;58935;54.498;18.544;2023-07-02T04:51:14;98927.20;;;17.90
71205;BMP180;58935;54.498;18.544;2023-07-02T04:53:39;98927.20;;;17.90
71205;BMP180;58935;54.498;18.544;2023-07-02T04:56:04;98928.60;;;17.90
71205;BMP180;58935;54.498;18.544;2023-07-02T04:58:32;98931.20;;;17.90
71205;BMP180;58935;54.498;18.544;2023-07-02T05:00:58;98926.00;;;17.80
71205;BMP180;58935;54.498;18.544;2023-07-02T05:03:23;98930.60;;;17.80
71205;BMP180;58935;54.498;18.544;2023-07-02T05:05:51;98927.00;;;17.80
71205;BMP180;58935;54.498;18.544;2023-07-02T05:08:16;98924.00;;;17.78
71205;BMP180;58935;54.498;18.544;2023-07-02T05:10:42;98927.40;;;17.80
71205;BMP180;58935;54.498;18.544;2023-07-02T05:13:07;98924.40;;;17.80
71205;BMP180;58935;54.498;18.544;2023-07-02T05:15:32;98928.80;;;17.80
71205;BMP180;58935;54.498;18.544;2023-07-02T05:17:58;98924.60;;;17.80
71205;BMP180;58935;54.498;18.544;2023-07-02T05:20:23;98923.00;;;17.90
71205;BMP180;58935;54.498;18.544;2023-07-02T05:22:48;98915.20;;;18.00
71205;BMP180;58935;54.498;18.544;2023-07-02T05:25:16;98912.40;;;18.00
71205;BMP180;58935;54.498;18.544;2023-07-02T05:27:42;98916.40;;;18.06
71205;BMP180;58935;54.498;18.544;2023-07-02T05:30:08;98911.60;;;18.10
71205;BMP180;58935;54.498;18.544;2023-07-02T05:32:34;98919.20;;;18.10
71205;BMP180;58935;54.498;18.544;2023-07-02T05:35:00;98912.60;;;18.12
71205;BMP180;58935;54.498;18.544;2023-07-02T05:37:25;98911.40;;;18.20
71205;BMP180;58935;54.498;18.544;2023-07-02T05:39:50;98915.40;;;18.20
71205;BMP180;58935;54.498;18.544;2023-07-02T05:42:18;98917.80;;;18.30
71205;BMP180;58935;54.498;18.544;2023-07-02T05:44:45;98913.20;;;18.30
71205;BMP180;58935;54.498;18.544;2023-07-02T05:47:13;98916.20;;;18.30
71205;BMP180;58935;54.498;18.544;2023-07-02T05:49:42;98913.80;;;18.30
71205;BMP180;58935;54.498;18.544;2023-07-02T05:52:08;98918.00;;;18.30
71205;BMP180;58935;54.498;18.544;2023-07-02T05:54:33;98913.40;;;18.30
71205;BMP180;58935;54.498;18.544;2023-07-02T05:57:01;98908.80;;;18.20
71205;BMP180;58935;54.498;18.544;2023-07-02T05:59:26;98908.40;;;18.20
71205;BMP180;58935;54.498;18.544;2023-07-02T06:01:52;98910.00;;;18.14
71205;BMP180;58935;54.498;18.544;2023-07-02T06:04:17;98914.60;;;18.10
71205;BMP180;58935;54.498;18.544;2023-07-02T06:06:42;98916.40;;;18.10
71205;BMP180;58935;54.498;18.544;2023-07-02T06:09:07;98916.20;;;18.10
71205;BMP180;58935;54.498;18.544;2023-07-02T06:11:33;98917.60;;;18.00
71205;BMP180;58935;54.498;18.544;2023-07-02T06:13:58;98919.80;;;18.00
71205;BMP180;58935;54.498;18.544;2023-07-02T06:16:25;98914.00;;;17.98
71205;BMP180;58935;54.498;18.544;2023-07-02T06:18:50;98903.80;;;17.90
71205;BMP180;58935;54.498;18.544;2023-07-02T06:21:16;98912.60;;;17.90
71205;BMP180;58935;54.498;18.544;2023-07-02T06:23:43;98910.20;;;17.80
71205;BMP180;58935;54.498;18.544;2023-07-02T06:26:10;98907.40;;;17.80
71205;BMP180;58935;54.498;18.544;2023-07-02T06:28:35;98909.00;;;17.70
71205;BMP180;58935;54.498;18.544;2023-07-02T06:31:01;98915.20;;;17.68
71205;BMP180;58935;54.498;18.544;2023-07-02T06:33:26;98917.40;;;17.60
71205;BMP180;58935;54.498;18.544;2023-07-02T06:35:52;98915.40;;;17.60
71205;BMP180;58935;54.498;18.544;2023-07-02T06:38:17;98914.00;;;17.60
71205;BMP180;58935;54.498;18.544;2023-07-02T06:40:45;98911.80;;;17.60
71205;BMP180;58935;54.498;18.544;2023-07-02T06:43:10;98915.60;;;17.50
71205;BMP180;58935;54.498;18.544;2023-07-02T06:45:38;98921.40;;;17.50
71205;BMP180;58935;54.498;18.544;2023-07-02T06:48:04;98908.40;;;17.40
71205;BMP180;58935;54.498;18.544;2023-07-02T06:50:29;98926.60;;;17.40
71205;BMP180;58935;54.498;18.544;2023-07-02T06:52:54;98928.00;;;17.30
71205;BMP180;58935;54.498;18.544;2023-07-02T06:55:20;98939.60;;;17.24
71205;BMP180;58935;54.498;18.544;2023-07-02T06:57:45;98942.60;;;17.22
71205;BMP180;58935;54.498;18.544;2023-07-02T07:00:13;98944.80;;;17.20
71205;BMP180;58935;54.498;18.544;2023-07-02T07:02:38;98950.20;;;17.20
71205;BMP180;58935;54.498;18.544;2023-07-02T07:05:04;98947.40;;;17.06
71205;BMP180;58935;54.498;18.544;2023-07-02T07:07:31;98953.80;;;17.00
71205;BMP180;58935;54.498;18.544;2023-07-02T07:09:57;98962.40;;;16.92
71205;BMP180;58935;54.498;18.544;2023-07-02T07:12:22;98959.20;;;16.80
71205;BMP180;58935;54.498;18.544;2023-07-02T07:14:47;98966.60;;;16.70
71205;BMP180;58935;54.498;18.544;2023-07-02T07:17:15;98959.00;;;16.68
71205;BMP180;58935;54.498;18.544;2023-07-02T07:19:42;98961.00;;;16.60
71205;BMP180;58935;54.498;18.544;2023-07-02T07:22:10;98960.60;;;16.60
71205;BMP180;58935;54.498;18.544;2023-07-02T07:24:35;98958.60;;;16.60
71205;BMP180;58935;54.498;18.544;2023-07-02T07:27:00;98957.80;;;16.60
71205;BMP180;58935;54.498;18.544;2023-07-02T07:29:28;98955.20;;;16.68
71205;BMP180;58935;54.498;18.544;2023-07-02T07:31:54;98951.20;;;16.70
71205;BMP180;58935;54.498;18.544;2023-07-02T07:34:19;98948.60;;;16.70
71205;BMP180;58935;54.498;18.544;2023-07-02T07:36:44;98959.80;;;16.70
71205;BMP180;58935;54.498;18.544;2023-07-02T07:39:12;98966.40;;;16.80
71205;BMP180;58935;54.498;18.544;2023-07-02T07:41:38;98965.60;;;16.80
71205;BMP180;58935;54.498;18.544;2023-07-02T07:44:03;98967.40;;;16.80
71205;BMP180;58935;54.498;18.544;2023-07-02T07:46:28;98968.60;;;16.80
71205;BMP180;58935;54.498;18.544;2023-07-02T07:48:54;98967.40;;;16.80
71205;BMP180;58935;54.498;18.544;2023-07-02T07:51:19;98983.60;;;16.80
71205;BMP180;58935;54.498;18.544;2023-07-02T07:53:45;98981.80;;;16.80
71205;BMP180;58935;54.498;18.544;2023-07-02T07:56:10;98990.20;;;16.70
71205;BMP180;58935;54.498;18.544;2023-07-02T07:58:35;98984.60;;;16.60
71205;BMP180;58935;54.498;18.544;2023-07-02T08:01:01;99002.00;;;16.50
71205;BMP180;58935;54.498;18.544;2023-07-02T08:03:26;99009.40;;;16.46
71205;BMP180;58935;54.498;18.544;2023-07-02T08:05:51;99010.40;;;16.40
71205;BMP180;58935;54.498;18.544;2023-07-02T08:08:17;99003.20;;;16.30
71205;BMP180;58935;54.498;18.544;2023-07-02T08:10:42;99006.20;;;16.26
71205;BMP180;58935;54.498;18.544;2023-07-02T08:13:08;99007.40;;;16.20
71205;BMP180;58935;54.498;18.544;2023-07-02T08:15:33;99013.40;;;16.20
71205;BMP180;58935;54.498;18.544;2023-07-02T08:17:59;99000.80;;;16.20
71205;BMP180;58935;54.498;18.544;2023-07-02T08:20:25;99011.20;;;16.20
71205;BMP180;58935;54.498;18.544;2023-07-02T08:22:51;99011.40;;;16.20
71205;BMP180;58935;54.498;18.544;2023-07-02T08:25:18;99003.40;;;16.30
71205;BMP180;58935;54.498;18.544;2023-07-02T08:27:45;99011.40;;;16.30
71205;BMP180;58935;54.498;18.544;2023-07-02T08:30:10;99010.20;;;16.30
71205;BMP180;58935;54.498;18.544;2023-07-02T08:32:36;99009.40;;;16.40
71205;BMP180;58935;54.498;18.544;2023-07-02T08:35:01;99005.80;;;16.50
71205;BMP180;58935;54.498;18.544;2023-07-02T08:37:29;99006.20;;;16.60
71205;BMP180;58935;54.498;18.544;2023-07-02T08:39:54;99002.40;;;16.70
71205;BMP180;58935;54.498;18.544;2023-07-02T08:42:20;99000.00;;;16.80
71205;BMP180;58935;54.498;18.544;2023-07-02T08:44:47;99011.60;;;16.92
71205;BMP180;58935;54.498;18.544;2023-07-02T08:47:13;99024.60;;;17.10
71205;BMP180;58935;54.498;18.544;2023-07-02T08:49:41;99032.40;;;17.20
71205;BMP180;58935;54.498;18.544;2023-07-02T08:52:07;99014.60;;;17.32
71205;BMP180;58935;54.498;18.544;2023-07-02T08:54:32;99002.60;;;17.50
71205;BMP180;58935;54.498;18.544;2023-07-02T08:56:59;99011.20;;;17.60
71205;BMP180;58935;54.498;18.544;2023-07-02T08:59:30;99014.00;;;17.70
71205;BMP180;58935;54.498;18.544;2023-07-02T09:01:56;99016.20;;;17.82
71205;BMP180;58935;54.498;18.544;2023-07-02T09:04:24;98999.40;;;18.00
71205;BMP180;58935;54.498;18.544;2023-07-02T09:07:06;98990.60;;;18.10
71205;BMP180;58935;54.498;18.544;2023-07-02T09:09:32;99004.20;;;18.20
71205;BMP180;58935;54.498;18.544;2023-07-02T09:11:57;99007.20;;;18.30
71205;BMP180;58935;54.498;18.544;2023-07-02T09:14:30;99009.40;;;18.40
71205;BMP180;58935;54.498;18.544;2023-07-02T09:17:02;99002.40;;;18.50
71205;BMP180;58935;54.498;18.544;2023-07-02T09:19:28;99007.20;;;18.50
71205;BMP180;58935;54.498;18.544;2023-07-02T09:21:58;99005.00;;;18.70
71205;BMP180;58935;54.498;18.544;2023-07-02T09:24:28;99012.20;;;18.80
71205;BMP180;58935;54.498;18.544;2023-07-02T09:26:57;99017.80;;;18.90
71205;BMP180;58935;54.498;18.544;2023-07-02T09:29:29;99025.20;;;18.82
71205;BMP180;58935;54.498;18.544;2023-07-02T09:31:59;99021.40;;;18.80
71205;BMP180;58935;54.498;18.544;2023-07-02T09:34:29;99010.80;;;18.80
71205;BMP180;58935;54.498;18.544;2023-07-02T09:36:55;99010.60;;;18.80
71205;BMP180;58935;54.498;18.544;2023-07-02T09:39:30;99020.20;;;18.80
71205;BMP180;58935;54.498;18.544;2023-07-02T09:41:58;99026.60;;;18.80
71205;BMP180;58935;54.498;18.544;2023-07-02T09:44:28;99022.20;;;18.80
71205;BMP180;58935;54.498;18.544;2023-07-02T09:47:06;99023.80;;;18.90
71205;BMP180;58935;54.498;18.544;2023-07-02T09:49:36;99025.80;;;18.90
71205;BMP180;58935;54.498;18.544;2023-07-02T09:52:07;99022.60;;;19.02
71205;BMP180;58935;54.498;18.544;2023-07-02T09:54:34;99039.60;;;19.20
71205;BMP180;58935;54.498;18.544;2023-07-02T09:57:03;99033.80;;;19.26
71205;BMP180;58935;54.498;18.544;2023-07-02T09:59:29;99040.80;;;19.28
71205;BMP180;58935;54.498;18.544;2023-07-02T10:01:58;99036.60;;;19.30
71205;BMP180;58935;54.498;18.544;2023-07-02T10:04:24;99059.60;;;19.34
71205;BMP180;58935;54.498;18.544;2023-07-02T10:06:53;99053.80;;;19.28
71205;BMP180;58935;54.498;18.544;2023-07-02T10:09:36;99046.80;;;19.30
71205;BMP180;58935;54.498;18.544;2023-07-02T10:12:21;99054.20;;;19.40
71205;BMP180;58935;54.498;18.544;2023-07-02T10:14:50;99064.20;;;19.50
71205;BMP180;58935;54.498;18.544;2023-07-02T10:19:52;99070.80;;;19.60
71205;BMP180;58935;54.498;18.544;2023-07-02T10:22:19;99063.60;;;19.56
71205;BMP180;58935;54.498;18.544;2023-07-02T10:24:52;99066.80;;;19.50
71205;BMP180;58935;54.498;18.544;2023-07-02T10:27:35;99059.80;;;19.40
71205;BMP180;58935;54.498;18.544;2023-07-02T10:30:02;99084.80;;;19.40
71205;BMP180;58935;54.498;18.544;2023-07-02T10:32:29;99082.20;;;19.40
71205;BMP180;58935;54.498;18.544;2023-07-02T10:34:55;99081.20;;;19.40
71205;BMP180;58935;54.498;18.544;2023-07-02T10:37:21;99071.00;;;19.40
71205;BMP180;58935;54.498;18.544;2023-07-02T10:39:47;99068.40;;;19.50
71205;BMP180;58935;54.498;18.544;2023-07-02T10:42:12;99063.00;;;19.50
71205;BMP180;58935;54.498;18.544;2023-07-02T10:44:46;99057.20;;;19.66
71205;BMP180;58935;54.498;18.544;2023-07-02T10:47:12;99071.60;;;19.80
71205;BMP180;58935;54.498;18.544;2023-07-02T10:49:37;99056.20;;;19.80
71205;BMP180;58935;54.498;18.544;2023-07-02T10:52:03;99079.60;;;19.70
71205;BMP180;58935;54.498;18.544;2023-07-02T10:57:07;99071.20;;;19.68
71205;BMP180;58935;54.498;18.544;2023-07-02T10:59:33;99087.40;;;19.70
71205;BMP180;58935;54.498;18.544;2023-07-02T11:01:59;99080.40;;;19.74
71205;BMP180;58935;54.498;18.544;2023-07-02T11:04:28;99083.80;;;19.80
71205;BMP180;58935;54.498;18.544;2023-07-02T11:06:54;99087.40;;;19.70
71205;BMP180;58935;54.498;18.544;2023-07-02T11:09:19;99078.20;;;19.70
71205;BMP180;58935;54.498;18.544;2023-07-02T11:11:54;99087.80;;;19.70
71205;BMP180;58935;54.498;18.544;2023-07-02T11:14:27;99077.40;;;19.60
71205;BMP180;58935;54.498;18.544;2023-07-02T11:16:55;99088.80;;;19.44
71205;BMP180;58935;54.498;18.544;2023-07-02T11:19:20;99094.80;;;19.30
71205;BMP180;58935;54.498;18.544;2023-07-02T11:21:54;99110.40;;;19.20
71205;BMP180;58935;54.498;18.544;2023-07-02T11:24:28;99119.00;;;19.10
71205;BMP180;58935;54.498;18.544;2023-07-02T11:26:54;99112.40;;;19.10
71205;BMP180;58935;54.498;18.544;2023-07-02T11:29:20;99106.80;;;19.10
71205;BMP180;58935;54.498;18.544;2023-07-02T11:31:46;99115.00;;;19.10
71205;BMP180;58935;54.498;18.544;2023-07-02T11:34:15;99120.20;;;19.20
71205;BMP180;58935;54.498;18.544;2023-07-02T11:36:41;99115.20;;;19.32
71205;BMP180;58935;54.498;18.544;2023-07-02T11:39:09;99113.80;;;19.48
71205;BMP180;58935;54.498;18.544;2023-07-02T11:41:40;99127.60;;;19.64
71205;BMP180;58935;54.498;18.544;2023-07-02T11:44:07;99127.80;;;19.90
71205;BMP180;58935;54.498;18.544;2023-07-02T11:46:35;99127.40;;;20.12
71205;BMP180;58935;54.498;18.544;2023-07-02T11:49:02;99112.00;;;20.40
71205;BMP180;58935;54.498;18.544;2023-07-02T11:51:28;99111.60;;;20.40
71205;BMP180;58935;54.498;18.544;2023-07-02T11:53:53;99132.60;;;20.30
71205;BMP180;58935;54.498;18.544;2023-07-02T11:56:19;99141.20;;;20.10
71205;BMP180;58935;54.498;18.544;2023-07-02T11:58:44;99136.20;;;20.00
71205;BMP180;58935;54.498;18.544;2023-07-02T12:01:09;99141.00;;;19.80
71205;BMP180;58935;54.498;18.544;2023-07-02T12:03:35;99151.80;;;19.70
71205;BMP180;58935;54.498;18.544;2023-07-02T12:06:03;99146.20;;;19.60
71205;BMP180;58935;54.498;18.544;2023-07-02T12:08:29;99141.40;;;19.60
71205;BMP180;58935;54.498;18.544;2023-07-02T12:10:54;99148.20;;;19.68
71205;BMP180;58935;54.498;18.544;2023-07-02T12:13:19;99156.40;;;19.80
71205;BMP180;58935;54.498;18.544;2023-07-02T12:15:47;99143.80;;;19.90
71205;BMP180;58935;54.498;18.544;2023-07-02T12:18:13;99146.40;;;20.06
71205;BMP180;58935;54.498;18.544;2023-07-02T12:20:40;99146.20;;;20.26
71205;BMP180;58935;54.498;18.544;2023-07-02T12:23:05;99148.40;;;20.52
71205;BMP180;58935;54.498;18.544;2023-07-02T12:25:35;99145.20;;;20.74
71205;BMP180;58935;54.498;18.544;2023-07-02T12:28:03;99151.20;;;20.70
71205;BMP180;58935;54.498;18.544;2023-07-02T12:30:29;99158.80;;;20.70
71205;BMP180;58935;54.498;18.544;2023-07-02T12:32:54;99171.20;;;20.70
71205;BMP180;58935;54.498;18.544;2023-07-02T12:35:20;99166.00;;;20.70
71205;BMP180;58935;54.498;18.544;2023-07-02T12:37:49;99181.20;;;20.66
71205;BMP180;58935;54.498;18.544;2023-07-02T12:40:15;99178.40;;;20.80
71205;BMP180;58935;54.498;18.544;2023-07-02T12:42:42;99185.40;;;20.90
71205;BMP180;58935;54.498;18.544;2023-07-02T12:45:09;99183.40;;;20.80
71205;BMP180;58935;54.498;18.544;2023-07-02T12:47:35;99190.80;;;20.80
71205;BMP180;58935;54.498;18.544;2023-07-02T12:50:01;99182.40;;;21.00
71205;BMP180;58935;54.498;18.544;2023-07-02T12:52:29;99184.40;;;20.98
71205;BMP180;58935;54.498;18.544;2023-07-02T12:54:55;99185.60;;;20.98
71205;BMP180;58935;54.498;18.544;2023-07-02T12:57:20;99193.00;;;21.10
71205;BMP180;58935;54.498;18.544;2023-07-02T12:59:45;99193.40;;;21.00
71205;BMP180;58935;54.498;18.544;2023-07-02T13:02:11;99193.60;;;20.88
71205;BMP180;58935;54.498;18.544;2023-07-02T13:04:40;99187.00;;;20.80
71205;BMP180;58935;54.498;18.544;2023-07-02T13:07:06;99186.20;;;20.80
71205;BMP180;58935;54.498;18.544;2023-07-02T13:09:31;99194.80;;;20.90
71205;BMP180;58935;54.498;18.544;2023-07-02T13:11:57;99190.00;;;21.00
71205;BMP180;58935;54.498;18.544;2023-07-02T13:14:22;99193.00;;;21.10
71205;BMP180;58935;54.498;18.544;2023-07-02T13:16:47;99173.20;;;21.20
71205;BMP180;58935;54.498;18.544;2023-07-02T13:19:13;99187.40;;;21.20
71205;BMP180;58935;54.498;18.544;2023-07-02T13:21:42;99195.00;;;21.24
71205;BMP180;58935;54.498;18.544;2023-07-02T13:24:10;99188.60;;;21.40
71205;BMP180;58935;54.498;18.544;2023-07-02T13:26:37;99196.60;;;21.60
71205;BMP180;58935;54.498;18.544;2023-07-02T13:29:03;99192.20;;;21.72
71205;BMP180;58935;54.498;18.544;2023-07-02T13:31:28;99201.40;;;21.80
71205;BMP180;58935;54.498;18.544;2023-07-02T13:33:53;99203.40;;;21.86
71205;BMP180;58935;54.498;18.544;2023-07-02T13:36:19;99222.60;;;21.80
71205;BMP180;58935;54.498;18.544;2023-07-02T13:38:44;99212.00;;;21.64
71205;BMP180;58935;54.498;18.544;2023-07-02T13:41:12;99218.80;;;21.70
71205;BMP180;58935;54.498;18.544;2023-07-02T13:43:37;99200.00;;;21.86
71205;BMP180;58935;54.498;18.544;2023-07-02T13:46:03;99197.40;;;21.90
71205;BMP180;58935;54.498;18.544;2023-07-02T13:48:28;99223.80;;;21.70
71205;BMP180;58935;54.498;18.544;2023-07-02T13:50:54;99223.00;;;21.60
71205;BMP180;58935;54.498;18.544;2023-07-02T13:53:19;99238.80;;;21.70
71205;BMP180;58935;54.498;18.544;2023-07-02T13:55:45;99236.00;;;21.60
71205;BMP180;58935;54.498;18.544;2023-07-02T13:58:10;99203.40;;;21.36